sensor_id;sensor_type;location;lat;lon;timestamp;P1;durP1;ratioP1;P2;durP2;ratioP2
75352;SDS011;76704;51.574;7.088;2024-02-21T00:00:34;28.00;;;13.38;;
75352;SDS011;76704;51.574;7.088;2024-02-21T00:03:00;36.08;;;12.27;;
75352;SDS011;76704;51.574;7.088;2024-02-21T00:05:28;32.88;;;11.80;;
75352;SDS011;76704;51.574;7.088;2024-02-21T00:07:55;35.97;;;14.25;;
75352;SDS011;76704;51.574;7.088;2024-02-21T00:10:24;34.50;;;13.27;;
75352;SDS011;76704;51.574;7.088;2024-02-21T00:12:51;34.42;;;12.68;;
75352;SDS011;76704;51.574;7.088;2024-02-21T00:15:18;33.88;;;11.85;;
75352;SDS011;76704;51.574;7.088;2024-02-21T00:17:45;30.17;;;11.57;;
75352;SDS011;76704;51.574;7.088;2024-02-21T00:20:15;35.30;;;12.73;;
75352;SDS011;76704;51.574;7.088;2024-02-21T00:22:42;35.20;;;13.60;;
75352;SDS011;76704;51.574;7.088;2024-02-21T00:25:09;35.45;;;12.90;;
75352;SDS011;76704;51.574;7.088;2024-02-21T00:27:35;34.53;;;12.50;;
75352;SDS011;76704;51.574;7.088;2024-02-21T00:30:02;28.05;;;11.40;;
75352;SDS011;76704;51.574;7.088;2024-02-21T00:32:30;24.85;;;11.43;;
75352;SDS011;76704;51.574;7.088;2024-02-21T00:34:57;31.80;;;13.65;;
75352;SDS011;76704;51.574;7.088;2024-02-21T00:37:24;26.83;;;12.90;;
75352;SDS011;76704;51.574;7.088;2024-02-21T00:39:51;39.70;;;13.32;;
75352;SDS011;76704;51.574;7.088;2024-02-21T00:42:17;32.67;;;12.30;;
75352;SDS011;76704;51.574;7.088;2024-02-21T00:44:44;31.80;;;12.45;;
75352;SDS011;76704;51.574;7.088;2024-02-21T00:47:11;33.53;;;13.27;;
75352;SDS011;76704;51.574;7.088;2024-02-21T00:49:38;31.08;;;11.82;;
75352;SDS011;76704;51.574;7.088;2024-02-21T00:52:05;33.30;;;12.80;;
75352;SDS011;76704;51.574;7.088;2024-02-21T00:54:32;29.05;;;11.73;;
75352;SDS011;76704;51.574;7.088;2024-02-21T00:57:13;33.33;;;13.38;;
75352;SDS011;76704;51.574;7.088;2024-02-21T00:59:40;30.50;;;12.90;;
75352;SDS011;76704;51.574;7.088;2024-02-21T01:02:08;38.08;;;13.73;;
75352;SDS011;76704;51.574;7.088;2024-02-21T01:04:35;34.90;;;12.90;;
75352;SDS011;76704;51.574;7.088;2024-02-21T01:07:03;36.40;;;12.70;;
75352;SDS011;76704;51.574;7.088;2024-02-21T01:09:30;39.17;;;12.98;;
75352;SDS011;76704;51.574;7.088;2024-02-21T01:11:57;32.85;;;12.90;;
75352;SDS011;76704;51.574;7.088;2024-02-21T01:14:24;32.13;;;13.32;;
75352;SDS011;76704;51.574;7.088;2024-02-21T01:16:51;32.30;;;12.77;;
75352;SDS011;76704;51.574;7.088;2024-02-21T01:19:18;34.63;;;14.68;;
75352;SDS011;76704;51.574;7.088;2024-02-21T01:21:45;32.45;;;11.88;;
75352;SDS011;76704;51.574;7.088;2024-02-21T01:24:12;37.85;;;11.88;;
75352;SDS011;76704;51.574;7.088;2024-02-21T01:26:39;44.10;;;14.35;;
75352;SDS011;76704;51.574;7.088;2024-02-21T01:29:05;29.90;;;13.10;;
75352;SDS011;76704;51.574;7.088;2024-02-21T01:31:32;25.83;;;11.50;;
75352;SDS011;76704;51.574;7.088;2024-02-21T01:33:59;31.35;;;12.48;;
75352;SDS011;76704;51.574;7.088;2024-02-21T01:36:26;31.75;;;12.32;;
75352;SDS011;76704;51.574;7.088;2024-02-21T01:38:53;26.88;;;11.63;;
75352;SDS011;76704;51.574;7.088;2024-02-21T01:41:19;26.40;;;11.65;;
75352;SDS011;76704;51.574;7.088;2024-02-21T01:43:46;28.40;;;11.65;;
75352;SDS011;76704;51.574;7.088;2024-02-21T01:46:13;28.70;;;11.23;;
75352;SDS011;76704;51.574;7.088;2024-02-21T01:48:40;25.38;;;9.80;;
75352;SDS011;76704;51.574;7.088;2024-02-21T01:51:07;26.23;;;11.82;;
75352;SDS011;76704;51.574;7.088;2024-02-21T01:53:35;32.05;;;12.85;;
75352;SDS011;76704;51.574;7.088;2024-02-21T01:56:05;31.20;;;11.40;;
75352;SDS011;76704;51.574;7.088;2024-02-21T01:58:32;28.73;;;13.20;;
75352;SDS011;76704;51.574;7.088;2024-02-21T02:01:03;33.03;;;10.93;;
75352;SDS011;76704;51.574;7.088;2024-02-21T02:03:30;33.75;;;12.48;;
75352;SDS011;76704;51.574;7.088;2024-02-21T02:05:58;26.10;;;11.77;;
75352;SDS011;76704;51.574;7.088;2024-02-21T02:08:24;27.30;;;11.63;;
75352;SDS011;76704;51.574;7.088;2024-02-21T02:10:52;33.70;;;12.30;;
75352;SDS011;76704;51.574;7.088;2024-02-21T02:13:19;29.58;;;11.05;;
75352;SDS011;76704;51.574;7.088;2024-02-21T02:15:46;23.27;;;10.43;;
75352;SDS011;76704;51.574;7.088;2024-02-21T02:18:14;26.65;;;12.15;;
75352;SDS011;76704;51.574;7.088;2024-02-21T02:20:43;29.45;;;10.48;;
75352;SDS011;76704;51.574;7.088;2024-02-21T02:28:20;26.33;;;9.20;;
75352;SDS011;76704;51.574;7.088;2024-02-21T02:30:47;26.92;;;10.45;;
75352;SDS011;76704;51.574;7.088;2024-02-21T02:33:15;23.77;;;9.60;;
75352;SDS011;76704;51.574;7.088;2024-02-21T02:35:44;26.30;;;9.50;;
75352;SDS011;76704;51.574;7.088;2024-02-21T02:38:12;25.67;;;10.25;;
75352;SDS011;76704;51.574;7.088;2024-02-21T02:40:40;29.80;;;11.88;;
75352;SDS011;76704;51.574;7.088;2024-02-21T02:43:08;28.55;;;10.18;;
75352;SDS011;76704;51.574;7.088;2024-02-21T02:45:35;26.00;;;9.27;;
75352;SDS011;76704;51.574;7.088;2024-02-21T02:48:02;26.60;;;10.55;;
75352;SDS011;76704;51.574;7.088;2024-02-21T02:50:29;25.02;;;10.68;;
75352;SDS011;76704;51.574;7.088;2024-02-21T02:52:57;22.80;;;9.57;;
75352;SDS011;76704;51.574;7.088;2024-02-21T02:55:24;26.65;;;10.70;;
75352;SDS011;76704;51.574;7.088;2024-02-21T02:57:53;23.35;;;10.45;;
75352;SDS011;76704;51.574;7.088;2024-02-21T03:00:20;31.52;;;11.48;;
75352;SDS011;76704;51.574;7.088;2024-02-21T03:02:48;21.00;;;9.00;;
75352;SDS011;76704;51.574;7.088;2024-02-21T03:05:19;33.15;;;10.80;;
75352;SDS011;76704;51.574;7.088;2024-02-21T03:07:47;28.77;;;10.52;;
75352;SDS011;76704;51.574;7.088;2024-02-21T03:10:16;26.92;;;9.95;;
75352;SDS011;76704;51.574;7.088;2024-02-21T03:12:44;31.00;;;9.93;;
75352;SDS011;76704;51.574;7.088;2024-02-21T03:15:12;27.88;;;11.30;;
75352;SDS011;76704;51.574;7.088;2024-02-21T03:17:40;25.77;;;9.65;;
75352;SDS011;76704;51.574;7.088;2024-02-21T03:20:07;32.35;;;10.63;;
75352;SDS011;76704;51.574;7.088;2024-02-21T03:22:38;28.40;;;9.98;;
75352;SDS011;76704;51.574;7.088;2024-02-21T03:25:06;24.27;;;9.07;;
75352;SDS011;76704;51.574;7.088;2024-02-21T03:27:33;32.83;;;10.10;;
75352;SDS011;76704;51.574;7.088;2024-02-21T03:30:00;28.63;;;10.98;;
75352;SDS011;76704;51.574;7.088;2024-02-21T03:32:27;28.52;;;9.45;;
75352;SDS011;76704;51.574;7.088;2024-02-21T03:34:56;28.77;;;10.23;;
75352;SDS011;76704;51.574;7.088;2024-02-21T03:37:23;26.90;;;9.25;;
75352;SDS011;76704;51.574;7.088;2024-02-21T03:39:50;23.27;;;10.35;;
75352;SDS011;76704;51.574;7.088;2024-02-21T03:42:17;24.98;;;9.55;;
75352;SDS011;76704;51.574;7.088;2024-02-21T03:44:44;21.50;;;9.43;;
75352;SDS011;76704;51.574;7.088;2024-02-21T03:47:11;24.80;;;9.43;;
75352;SDS011;76704;51.574;7.088;2024-02-21T03:49:38;24.52;;;9.73;;
75352;SDS011;76704;51.574;7.088;2024-02-21T03:52:05;22.65;;;8.75;;
75352;SDS011;76704;51.574;7.088;2024-02-21T03:54:33;32.17;;;11.05;;
75352;SDS011;76704;51.574;7.088;2024-02-21T03:57:00;24.95;;;10.30;;
75352;SDS011;76704;51.574;7.088;2024-02-21T03:59:26;19.27;;;10.00;;
75352;SDS011;76704;51.574;7.088;2024-02-21T04:01:53;20.70;;;8.80;;
75352;SDS011;76704;51.574;7.088;2024-02-21T04:04:21;27.35;;;9.73;;
75352;SDS011;76704;51.574;7.088;2024-02-21T04:06:48;23.50;;;11.45;;
75352;SDS011;76704;51.574;7.088;2024-02-21T04:09:16;21.17;;;8.88;;
75352;SDS011;76704;51.574;7.088;2024-02-21T04:11:43;22.98;;;8.98;;
75352;SDS011;76704;51.574;7.088;2024-02-21T04:14:11;23.02;;;9.43;;
75352;SDS011;76704;51.574;7.088;2024-02-21T04:16:38;23.25;;;9.13;;
75352;SDS011;76704;51.574;7.088;2024-02-21T04:19:06;23.05;;;10.13;;
75352;SDS011;76704;51.574;7.088;2024-02-21T04:21:34;24.27;;;9.75;;
75352;SDS011;76704;51.574;7.088;2024-02-21T04:24:02;23.38;;;9.32;;
75352;SDS011;76704;51.574;7.088;2024-02-21T04:26:33;22.00;;;9.52;;
75352;SDS011;76704;51.574;7.088;2024-02-21T04:29:01;27.83;;;9.25;;
75352;SDS011;76704;51.574;7.088;2024-02-21T04:31:29;25.52;;;10.63;;
75352;SDS011;76704;51.574;7.088;2024-02-21T04:33:56;26.85;;;10.80;;
75352;SDS011;76704;51.574;7.088;2024-02-21T04:36:23;24.52;;;9.23;;
75352;SDS011;76704;51.574;7.088;2024-02-21T04:38:51;17.52;;;8.65;;
75352;SDS011;76704;51.574;7.088;2024-02-21T04:41:18;16.63;;;9.07;;
75352;SDS011;76704;51.574;7.088;2024-02-21T04:43:46;21.90;;;9.63;;
75352;SDS011;76704;51.574;7.088;2024-02-21T04:46:15;22.15;;;9.35;;
75352;SDS011;76704;51.574;7.088;2024-02-21T04:48:42;23.80;;;8.70;;
75352;SDS011;76704;51.574;7.088;2024-02-21T04:51:11;26.95;;;8.80;;
75352;SDS011;76704;51.574;7.088;2024-02-21T04:53:39;32.13;;;9.48;;
75352;SDS011;76704;51.574;7.088;2024-02-21T04:56:06;24.65;;;9.05;;
75352;SDS011;76704;51.574;7.088;2024-02-21T04:58:37;27.48;;;9.00;;
75352;SDS011;76704;51.574;7.088;2024-02-21T05:01:05;27.42;;;9.35;;
75352;SDS011;76704;51.574;7.088;2024-02-21T05:03:32;21.05;;;7.35;;
75352;SDS011;76704;51.574;7.088;2024-02-21T05:05:59;23.95;;;8.43;;
75352;SDS011;76704;51.574;7.088;2024-02-21T05:08:27;22.60;;;9.05;;
75352;SDS011;76704;51.574;7.088;2024-02-21T05:10:53;23.15;;;9.43;;
75352;SDS011;76704;51.574;7.088;2024-02-21T05:13:21;19.67;;;8.45;;
75352;SDS011;76704;51.574;7.088;2024-02-21T05:15:48;20.73;;;8.30;;
75352;SDS011;76704;51.574;7.088;2024-02-21T05:18:15;18.42;;;9.30;;
75352;SDS011;76704;51.574;7.088;2024-02-21T05:20:42;26.95;;;7.85;;
75352;SDS011;76704;51.574;7.088;2024-02-21T05:23:09;19.85;;;7.68;;
75352;SDS011;76704;51.574;7.088;2024-02-21T05:25:36;20.88;;;7.30;;
75352;SDS011;76704;51.574;7.088;2024-02-21T05:28:02;21.33;;;7.82;;
75352;SDS011;76704;51.574;7.088;2024-02-21T05:30:29;18.27;;;8.07;;
75352;SDS011;76704;51.574;7.088;2024-02-21T05:32:56;19.15;;;7.35;;
75352;SDS011;76704;51.574;7.088;2024-02-21T05:35:27;23.35;;;7.07;;
75352;SDS011;76704;51.574;7.088;2024-02-21T05:37:55;25.60;;;7.68;;
75352;SDS011;76704;51.574;7.088;2024-02-21T05:40:22;21.40;;;8.07;;
75352;SDS011;76704;51.574;7.088;2024-02-21T05:42:49;24.98;;;7.47;;
75352;SDS011;76704;51.574;7.088;2024-02-21T05:45:18;22.02;;;8.32;;
75352;SDS011;76704;51.574;7.088;2024-02-21T05:47:45;16.80;;;6.25;;
75352;SDS011;76704;51.574;7.088;2024-02-21T05:50:11;20.45;;;8.80;;
75352;SDS011;76704;51.574;7.088;2024-02-21T05:52:38;17.48;;;7.30;;
75352;SDS011;76704;51.574;7.088;2024-02-21T05:55:07;18.40;;;7.45;;
75352;SDS011;76704;51.574;7.088;2024-02-21T05:57:35;16.70;;;7.55;;
75352;SDS011;76704;51.574;7.088;2024-02-21T06:00:05;13.95;;;6.50;;
75352;SDS011;76704;51.574;7.088;2024-02-21T06:02:37;23.55;;;8.10;;
75352;SDS011;76704;51.574;7.088;2024-02-21T06:05:04;14.95;;;6.57;;
75352;SDS011;76704;51.574;7.088;2024-02-21T06:07:34;13.52;;;5.97;;
75352;SDS011;76704;51.574;7.088;2024-02-21T06:10:02;17.88;;;8.57;;
75352;SDS011;76704;51.574;7.088;2024-02-21T06:12:29;16.40;;;6.70;;
75352;SDS011;76704;51.574;7.088;2024-02-21T06:14:56;18.40;;;6.45;;
75352;SDS011;76704;51.574;7.088;2024-02-21T06:17:22;18.27;;;6.70;;
75352;SDS011;76704;51.574;7.088;2024-02-21T06:19:49;18.83;;;7.20;;
75352;SDS011;76704;51.574;7.088;2024-02-21T06:22:16;23.35;;;7.85;;
75352;SDS011;76704;51.574;7.088;2024-02-21T06:24:43;31.63;;;7.00;;
75352;SDS011;76704;51.574;7.088;2024-02-21T06:27:10;12.93;;;6.18;;
75352;SDS011;76704;51.574;7.088;2024-02-21T06:29:38;12.70;;;6.00;;
75352;SDS011;76704;51.574;7.088;2024-02-21T06:32:05;17.33;;;5.97;;
75352;SDS011;76704;51.574;7.088;2024-02-21T06:34:32;14.25;;;6.40;;
75352;SDS011;76704;51.574;7.088;2024-02-21T06:37:00;13.55;;;5.88;;
75352;SDS011;76704;51.574;7.088;2024-02-21T06:39:27;23.33;;;6.30;;
75352;SDS011;76704;51.574;7.088;2024-02-21T06:41:55;19.27;;;6.10;;
75352;SDS011;76704;51.574;7.088;2024-02-21T06:44:28;14.75;;;6.25;;
75352;SDS011;76704;51.574;7.088;2024-02-21T06:46:55;13.85;;;5.35;;
75352;SDS011;76704;51.574;7.088;2024-02-21T06:49:22;11.93;;;5.78;;
75352;SDS011;76704;51.574;7.088;2024-02-21T06:51:49;16.10;;;6.60;;
75352;SDS011;76704;51.574;7.088;2024-02-21T06:54:16;16.70;;;6.10;;
75352;SDS011;76704;51.574;7.088;2024-02-21T06:56:43;13.85;;;6.13;;
75352;SDS011;76704;51.574;7.088;2024-02-21T06:59:13;21.40;;;7.07;;
75352;SDS011;76704;51.574;7.088;2024-02-21T07:01:47;11.90;;;5.60;;
75352;SDS011;76704;51.574;7.088;2024-02-21T07:04:15;13.70;;;5.55;;
75352;SDS011;76704;51.574;7.088;2024-02-21T07:06:42;13.18;;;5.47;;
75352;SDS011;76704;51.574;7.088;2024-02-21T07:09:09;14.20;;;5.93;;
75352;SDS011;76704;51.574;7.088;2024-02-21T07:11:36;20.33;;;6.13;;
75352;SDS011;76704;51.574;7.088;2024-02-21T07:14:03;15.38;;;6.82;;
75352;SDS011;76704;51.574;7.088;2024-02-21T07:16:30;13.25;;;6.68;;
75352;SDS011;76704;51.574;7.088;2024-02-21T07:18:59;20.13;;;6.20;;
75352;SDS011;76704;51.574;7.088;2024-02-21T07:21:26;17.90;;;5.97;;
75352;SDS011;76704;51.574;7.088;2024-02-21T07:23:53;13.05;;;5.80;;
75352;SDS011;76704;51.574;7.088;2024-02-21T07:26:19;15.65;;;5.78;;
75352;SDS011;76704;51.574;7.088;2024-02-21T07:28:46;17.52;;;5.63;;
75352;SDS011;76704;51.574;7.088;2024-02-21T07:31:14;16.33;;;6.68;;
75352;SDS011;76704;51.574;7.088;2024-02-21T07:33:40;14.13;;;6.35;;
75352;SDS011;76704;51.574;7.088;2024-02-21T07:36:10;18.52;;;6.57;;
75352;SDS011;76704;51.574;7.088;2024-02-21T07:38:37;12.95;;;5.25;;
75352;SDS011;76704;51.574;7.088;2024-02-21T07:41:04;17.58;;;7.15;;
75352;SDS011;76704;51.574;7.088;2024-02-21T07:43:31;19.42;;;5.80;;
75352;SDS011;76704;51.574;7.088;2024-02-21T07:45:58;14.18;;;6.18;;
75352;SDS011;76704;51.574;7.088;2024-02-21T07:48:25;13.60;;;5.90;;
75352;SDS011;76704;51.574;7.088;2024-02-21T07:50:53;13.52;;;5.38;;
75352;SDS011;76704;51.574;7.088;2024-02-21T07:53:20;10.25;;;5.35;;
75352;SDS011;76704;51.574;7.088;2024-02-21T07:55:47;15.68;;;5.25;;
75352;SDS011;76704;51.574;7.088;2024-02-21T07:58:14;12.05;;;5.43;;
75352;SDS011;76704;51.574;7.088;2024-02-21T08:00:41;10.60;;;5.25;;
75352;SDS011;76704;51.574;7.088;2024-02-21T08:03:08;16.25;;;7.00;;
75352;SDS011;76704;51.574;7.088;2024-02-21T08:05:35;15.00;;;5.45;;
75352;SDS011;76704;51.574;7.088;2024-02-21T08:08:02;14.38;;;6.18;;
75352;SDS011;76704;51.574;7.088;2024-02-21T08:10:30;14.02;;;5.82;;
75352;SDS011;76704;51.574;7.088;2024-02-21T08:12:58;17.00;;;5.65;;
75352;SDS011;76704;51.574;7.088;2024-02-21T08:15:24;16.70;;;5.38;;
75352;SDS011;76704;51.574;7.088;2024-02-21T08:17:55;14.07;;;5.43;;
75352;SDS011;76704;51.574;7.088;2024-02-21T08:20:31;9.27;;;4.88;;
75352;SDS011;76704;51.574;7.088;2024-02-21T08:22:58;11.52;;;5.28;;
75352;SDS011;76704;51.574;7.088;2024-02-21T08:25:24;17.35;;;5.25;;
75352;SDS011;76704;51.574;7.088;2024-02-21T08:27:53;14.48;;;6.22;;
75352;SDS011;76704;51.574;7.088;2024-02-21T08:30:23;17.27;;;6.45;;
75352;SDS011;76704;51.574;7.088;2024-02-21T08:32:50;14.77;;;5.30;;
75352;SDS011;76704;51.574;7.088;2024-02-21T08:35:17;16.77;;;5.60;;
75352;SDS011;76704;51.574;7.088;2024-02-21T08:37:45;12.00;;;4.35;;
75352;SDS011;76704;51.574;7.088;2024-02-21T08:40:15;11.98;;;5.10;;
75352;SDS011;76704;51.574;7.088;2024-02-21T08:42:45;11.20;;;4.40;;
75352;SDS011;76704;51.574;7.088;2024-02-21T08:45:13;13.23;;;5.07;;
75352;SDS011;76704;51.574;7.088;2024-02-21T08:47:40;16.73;;;5.05;;
75352;SDS011;76704;51.574;7.088;2024-02-21T08:50:07;8.48;;;5.20;;
75352;SDS011;76704;51.574;7.088;2024-02-21T08:52:53;15.32;;;4.40;;
75352;SDS011;76704;51.574;7.088;2024-02-21T08:55:20;16.02;;;4.88;;
75352;SDS011;76704;51.574;7.088;2024-02-21T08:57:47;13.70;;;5.93;;
75352;SDS011;76704;51.574;7.088;2024-02-21T09:00:14;12.52;;;6.22;;
75352;SDS011;76704;51.574;7.088;2024-02-21T09:02:42;13.00;;;5.30;;
75352;SDS011;76704;51.574;7.088;2024-02-21T09:05:11;16.25;;;5.68;;
75352;SDS011;76704;51.574;7.088;2024-02-21T09:07:39;9.82;;;4.90;;
75352;SDS011;76704;51.574;7.088;2024-02-21T09:10:06;17.88;;;6.32;;
75352;SDS011;76704;51.574;7.088;2024-02-21T09:12:33;15.05;;;4.65;;
75352;SDS011;76704;51.574;7.088;2024-02-21T09:15:00;10.68;;;4.55;;
75352;SDS011;76704;51.574;7.088;2024-02-21T09:17:27;16.05;;;5.45;;
75352;SDS011;76704;51.574;7.088;2024-02-21T09:19:56;17.80;;;5.60;;
75352;SDS011;76704;51.574;7.088;2024-02-21T09:22:26;13.73;;;5.28;;
75352;SDS011;76704;51.574;7.088;2024-02-21T09:24:53;17.05;;;4.97;;
75352;SDS011;76704;51.574;7.088;2024-02-21T09:27:20;10.95;;;4.85;;
75352;SDS011;76704;51.574;7.088;2024-02-21T09:29:47;13.80;;;6.45;;
75352;SDS011;76704;51.574;7.088;2024-02-21T09:32:14;10.90;;;4.35;;
75352;SDS011;76704;51.574;7.088;2024-02-21T09:34:41;10.57;;;4.97;;
75352;SDS011;76704;51.574;7.088;2024-02-21T09:37:08;11.55;;;4.78;;
75352;SDS011;76704;51.574;7.088;2024-02-21T09:39:36;10.75;;;4.68;;
75352;SDS011;76704;51.574;7.088;2024-02-21T09:42:06;11.45;;;3.88;;
75352;SDS011;76704;51.574;7.088;2024-02-21T09:44:38;10.02;;;3.50;;
75352;SDS011;76704;51.574;7.088;2024-02-21T09:47:06;7.47;;;4.15;;
75352;SDS011;76704;51.574;7.088;2024-02-21T09:49:36;10.10;;;3.72;;
75352;SDS011;76704;51.574;7.088;2024-02-21T09:52:05;7.32;;;2.80;;
75352;SDS011;76704;51.574;7.088;2024-02-21T09:54:36;5.90;;;2.88;;
75352;SDS011;76704;51.574;7.088;2024-02-21T09:57:05;7.20;;;2.83;;
75352;SDS011;76704;51.574;7.088;2024-02-21T09:59:33;7.15;;;2.90;;
75352;SDS011;76704;51.574;7.088;2024-02-21T10:02:00;9.73;;;3.03;;
75352;SDS011;76704;51.574;7.088;2024-02-21T10:04:28;6.80;;;2.53;;
75352;SDS011;76704;51.574;7.088;2024-02-21T10:06:56;8.18;;;2.97;;
75352;SDS011;76704;51.574;7.088;2024-02-21T10:09:24;5.90;;;3.05;;
75352;SDS011;76704;51.574;7.088;2024-02-21T10:11:55;6.45;;;2.38;;
75352;SDS011;76704;51.574;7.088;2024-02-21T10:14:22;10.55;;;2.72;;
75352;SDS011;76704;51.574;7.088;2024-02-21T10:16:56;7.18;;;3.05;;
75352;SDS011;76704;51.574;7.088;2024-02-21T10:19:27;8.23;;;2.75;;
75352;SDS011;76704;51.574;7.088;2024-02-21T10:22:09;10.95;;;3.17;;
75352;SDS011;76704;51.574;7.088;2024-02-21T10:24:37;6.80;;;3.13;;
75352;SDS011;76704;51.574;7.088;2024-02-21T10:27:10;14.50;;;3.60;;
75352;SDS011;76704;51.574;7.088;2024-02-21T10:29:39;19.55;;;5.38;;
75352;SDS011;76704;51.574;7.088;2024-02-21T10:32:10;7.13;;;3.00;;
75352;SDS011;76704;51.574;7.088;2024-02-21T10:34:39;9.82;;;3.53;;
75352;SDS011;76704;51.574;7.088;2024-02-21T10:37:11;7.88;;;3.08;;
75352;SDS011;76704;51.574;7.088;2024-02-21T10:39:40;6.70;;;3.83;;
75352;SDS011;76704;51.574;7.088;2024-02-21T10:42:09;6.57;;;3.20;;
75352;SDS011;76704;51.574;7.088;2024-02-21T10:44:39;9.10;;;3.63;;
75352;SDS011;76704;51.574;7.088;2024-02-21T10:47:08;14.48;;;4.80;;
75352;SDS011;76704;51.574;7.088;2024-02-21T10:49:38;11.10;;;4.22;;
75352;SDS011;76704;51.574;7.088;2024-02-21T10:55:11;9.10;;;4.95;;
75352;SDS011;76704;51.574;7.088;2024-02-21T10:57:42;9.32;;;3.45;;
75352;SDS011;76704;51.574;7.088;2024-02-21T11:00:10;8.93;;;3.97;;
75352;SDS011;76704;51.574;7.088;2024-02-21T11:02:39;8.57;;;3.83;;
75352;SDS011;76704;51.574;7.088;2024-02-21T11:05:07;10.32;;;4.35;;
75352;SDS011;76704;51.574;7.088;2024-02-21T11:07:35;8.48;;;3.75;;
75352;SDS011;76704;51.574;7.088;2024-02-21T11:10:04;10.25;;;4.75;;
75352;SDS011;76704;51.574;7.088;2024-02-21T11:12:33;6.22;;;3.47;;
75352;SDS011;76704;51.574;7.088;2024-02-21T11:15:06;9.85;;;3.55;;
75352;SDS011;76704;51.574;7.088;2024-02-21T11:17:33;8.75;;;3.22;;
75352;SDS011;76704;51.574;7.088;2024-02-21T11:20:15;8.00;;;3.30;;
75352;SDS011;76704;51.574;7.088;2024-02-21T11:22:42;7.63;;;3.13;;
75352;SDS011;76704;51.574;7.088;2024-02-21T11:25:10;8.65;;;3.83;;
75352;SDS011;76704;51.574;7.088;2024-02-21T11:27:45;9.98;;;3.60;;
75352;SDS011;76704;51.574;7.088;2024-02-21T11:30:13;9.60;;;3.58;;
75352;SDS011;76704;51.574;7.088;2024-02-21T11:32:41;13.98;;;3.63;;
75352;SDS011;76704;51.574;7.088;2024-02-21T11:35:08;9.60;;;2.92;;
75352;SDS011;76704;51.574;7.088;2024-02-21T11:37:45;13.35;;;4.18;;
75352;SDS011;76704;51.574;7.088;2024-02-21T11:40:13;19.30;;;3.83;;
75352;SDS011;76704;51.574;7.088;2024-02-21T11:42:40;12.85;;;4.07;;
75352;SDS011;76704;51.574;7.088;2024-02-21T11:45:07;13.27;;;3.92;;
75352;SDS011;76704;51.574;7.088;2024-02-21T11:47:37;8.57;;;3.70;;
75352;SDS011;76704;51.574;7.088;2024-02-21T11:50:11;10.43;;;4.00;;
75352;SDS011;76704;51.574;7.088;2024-02-21T11:52:41;6.50;;;3.17;;
75352;SDS011;76704;51.574;7.088;2024-02-21T11:55:08;9.50;;;2.90;;
75352;SDS011;76704;51.574;7.088;2024-02-21T11:57:36;11.80;;;3.67;;
75352;SDS011;76704;51.574;7.088;2024-02-21T12:00:14;8.52;;;3.40;;
75352;SDS011;76704;51.574;7.088;2024-02-21T12:02:42;9.90;;;4.60;;
75352;SDS011;76704;51.574;7.088;2024-02-21T12:05:10;11.63;;;3.67;;
75352;SDS011;76704;51.574;7.088;2024-02-21T12:07:37;12.40;;;4.53;;
75352;SDS011;76704;51.574;7.088;2024-02-21T12:10:10;12.60;;;3.47;;
75352;SDS011;76704;51.574;7.088;2024-02-21T12:15:06;9.05;;;3.58;;
75352;SDS011;76704;51.574;7.088;2024-02-21T12:17:37;9.48;;;3.65;;
75352;SDS011;76704;51.574;7.088;2024-02-21T12:20:06;11.05;;;3.40;;
75352;SDS011;76704;51.574;7.088;2024-02-21T12:22:38;8.13;;;3.85;;
75352;SDS011;76704;51.574;7.088;2024-02-21T12:25:26;10.57;;;3.90;;
75352;SDS011;76704;51.574;7.088;2024-02-21T12:27:55;12.57;;;3.78;;
75352;SDS011;76704;51.574;7.088;2024-02-21T12:30:23;9.82;;;3.60;;
75352;SDS011;76704;51.574;7.088;2024-02-21T12:32:50;12.48;;;3.75;;
75352;SDS011;76704;51.574;7.088;2024-02-21T12:35:16;10.20;;;3.40;;
75352;SDS011;76704;51.574;7.088;2024-02-21T12:37:44;45.47;;;18.83;;
75352;SDS011;76704;51.574;7.088;2024-02-21T12:40:11;35.40;;;16.42;;
75352;SDS011;76704;51.574;7.088;2024-02-21T12:42:41;192.00;;;74.57;;
75352;SDS011;76704;51.574;7.088;2024-02-21T12:45:07;96.88;;;35.85;;
75352;SDS011;76704;51.574;7.088;2024-02-21T12:47:35;15.48;;;4.20;;
75352;SDS011;76704;51.574;7.088;2024-02-21T12:50:01;8.77;;;3.97;;
75352;SDS011;76704;51.574;7.088;2024-02-21T12:52:30;9.15;;;3.63;;
75352;SDS011;76704;51.574;7.088;2024-02-21T12:54:58;11.88;;;4.47;;
75352;SDS011;76704;51.574;7.088;2024-02-21T12:57:25;10.65;;;2.67;;
75352;SDS011;76704;51.574;7.088;2024-02-21T12:59:53;11.43;;;3.65;;
75352;SDS011;76704;51.574;7.088;2024-02-21T13:02:20;7.78;;;3.40;;
75352;SDS011;76704;51.574;7.088;2024-02-21T13:04:47;17.95;;;3.35;;
75352;SDS011;76704;51.574;7.088;2024-02-21T13:07:14;12.30;;;2.63;;
75352;SDS011;76704;51.574;7.088;2024-02-21T13:09:41;8.63;;;3.90;;
75352;SDS011;76704;51.574;7.088;2024-02-21T13:12:08;12.85;;;3.55;;
75352;SDS011;76704;51.574;7.088;2024-02-21T13:14:35;10.90;;;3.72;;
75352;SDS011;76704;51.574;7.088;2024-02-21T13:17:05;14.75;;;2.70;;
75352;SDS011;76704;51.574;7.088;2024-02-21T13:19:33;8.10;;;2.55;;
75352;SDS011;76704;51.574;7.088;2024-02-21T13:22:00;7.55;;;2.70;;
75352;SDS011;76704;51.574;7.088;2024-02-21T13:24:29;6.90;;;2.45;;
75352;SDS011;76704;51.574;7.088;2024-02-21T13:26:57;11.45;;;4.13;;
75352;SDS011;76704;51.574;7.088;2024-02-21T13:29:24;10.30;;;3.28;;
75352;SDS011;76704;51.574;7.088;2024-02-21T13:31:51;10.68;;;2.83;;
75352;SDS011;76704;51.574;7.088;2024-02-21T13:34:18;11.02;;;3.78;;
75352;SDS011;76704;51.574;7.088;2024-02-21T13:36:46;12.63;;;3.28;;
75352;SDS011;76704;51.574;7.088;2024-02-21T13:39:12;13.43;;;3.05;;
75352;SDS011;76704;51.574;7.088;2024-02-21T13:41:42;5.55;;;2.50;;
75352;SDS011;76704;51.574;7.088;2024-02-21T13:44:09;10.00;;;3.03;;
75352;SDS011;76704;51.574;7.088;2024-02-21T13:46:36;9.98;;;3.00;;
75352;SDS011;76704;51.574;7.088;2024-02-21T13:49:04;9.82;;;3.42;;
75352;SDS011;76704;51.574;7.088;2024-02-21T13:51:35;12.20;;;2.80;;
75352;SDS011;76704;51.574;7.088;2024-02-21T13:54:05;5.88;;;3.13;;
75352;SDS011;76704;51.574;7.088;2024-02-21T13:56:35;12.75;;;3.25;;
75352;SDS011;76704;51.574;7.088;2024-02-21T13:59:02;10.48;;;2.67;;
75352;SDS011;76704;51.574;7.088;2024-02-21T14:01:30;10.57;;;3.58;;
75352;SDS011;76704;51.574;7.088;2024-02-21T14:04:00;7.00;;;2.75;;
75352;SDS011;76704;51.574;7.088;2024-02-21T14:06:27;11.43;;;3.05;;
75352;SDS011;76704;51.574;7.088;2024-02-21T14:08:54;11.20;;;2.83;;
75352;SDS011;76704;51.574;7.088;2024-02-21T14:11:21;11.38;;;3.63;;
75352;SDS011;76704;51.574;7.088;2024-02-21T14:13:50;11.93;;;3.28;;
75352;SDS011;76704;51.574;7.088;2024-02-21T14:16:17;10.38;;;3.35;;
75352;SDS011;76704;51.574;7.088;2024-02-21T14:18:44;8.63;;;2.53;;
75352;SDS011;76704;51.574;7.088;2024-02-21T14:21:11;9.88;;;3.90;;
75352;SDS011;76704;51.574;7.088;2024-02-21T14:23:38;9.15;;;2.97;;
75352;SDS011;76704;51.574;7.088;2024-02-21T14:26:05;11.80;;;2.83;;
75352;SDS011;76704;51.574;7.088;2024-02-21T14:28:33;6.90;;;3.10;;
75352;SDS011;76704;51.574;7.088;2024-02-21T14:31:03;8.30;;;3.55;;
75352;SDS011;76704;51.574;7.088;2024-02-21T14:33:32;11.53;;;3.10;;
75352;SDS011;76704;51.574;7.088;2024-02-21T14:35:59;7.80;;;3.22;;
75352;SDS011;76704;51.574;7.088;2024-02-21T14:38:26;7.97;;;2.83;;
75352;SDS011;76704;51.574;7.088;2024-02-21T14:40:54;12.15;;;3.28;;
75352;SDS011;76704;51.574;7.088;2024-02-21T14:43:21;12.32;;;3.20;;
75352;SDS011;76704;51.574;7.088;2024-02-21T14:45:49;10.82;;;3.08;;
75352;SDS011;76704;51.574;7.088;2024-02-21T14:48:16;7.72;;;3.42;;